Time;durP1;ratioP1;P1;durP2;ratioP2;P2;SDS_P1;SDS_P2;PMS_P1;PMS_P2;Temp;Humidity;BMP_temperature;BMP_pressure;BME280_temperature;BME280_humidity;BME280_pressure;Samples;Min_cycle;Max_cycle;Signal;HPM_P1;HPM_P2
2023/03/02 00:07:44;;;;;;;179.20;88.60;;;;;;;-4.19;69.07;99460.43;435153;1253;108128;-40
2023/03/02 00:17:52;;;;;;;161.30;80.90;;;;;;;-4.05;69.23;99463.77;435398;1255;97786;-40
2023/03/02 00:27:59;;;;;;;152.80;70.30;;;;;;;-3.89;69.33;99458.64;435193;1252;107391;-39
2023/03/02 00:48:13;;;;;;;201.30;83.70;;;;;;;-3.89;69.74;99444.11;435159;1255;97509;-39
2023/03/02 01:08:27;;;;;;;213.10;89.80;;;;;;;-3.99;70.23;99439.05;435183;1252;108002;-40
2023/03/02 01:18:37;;;;;;;245.50;105.70;;;;;;;-4.05;70.32;99431.90;435151;1252;97285;-40
2023/03/02 01:28:44;;;;;;;287.30;122.90;;;;;;;-4.14;70.47;99423.68;435211;1256;109941;-40
2023/03/02 01:38:53;;;;;;;320.30;131.70;;;;;;;-4.19;70.53;99420.62;435212;1253;108831;-40
2023/03/02 01:49:04;;;;;;;316.30;148.20;;;;;;;-4.16;70.69;99410.70;435298;1255;97475;-40
2023/03/02 01:59:08;;;;;;;318.70;148.00;;;;;;;-4.08;70.92;99399.48;435088;1252;109348;-40
2023/03/02 02:09:18;;;;;;;295.50;134.60;;;;;;;-4.05;70.94;99381.16;434885;1252;106900;-40
2023/03/02 02:19:26;;;;;;;399.90;170.10;;;;;;;-3.99;71.26;99380.23;435248;1255;97980;-39
2023/03/02 02:29:38;;;;;;;410.10;175.30;;;;;;;-4.09;71.23;99380.77;436158;1255;108914;-39
2023/03/02 02:39:47;;;;;;;379.10;171.80;;;;;;;-4.30;71.55;99376.16;435333;1253;106039;-40
2023/03/02 02:49:54;;;;;;;285.40;121.70;;;;;;;-4.41;71.66;99363.40;435294;1253;97756;-41
2023/03/02 03:00:05;;;;;;;377.60;161.90;;;;;;;-4.51;71.84;99355.74;435366;1255;108635;-39
2023/03/02 03:20:18;;;;;;;321.20;137.60;;;;;;;-4.80;71.83;99352.46;435353;1251;97774;-40
2023/03/02 03:30:26;;;;;;;305.60;144.20;;;;;;;-4.83;72.07;99341.89;435926;1264;110178;-40
2023/03/02 03:40:34;;;;;;;271.00;129.20;;;;;;;-4.69;72.20;99332.55;434953;1253;310454;-40
2023/03/02 03:50:42;;;;;;;233.70;108.50;;;;;;;-4.55;72.27;99320.93;435357;1253;97673;-40
2023/03/02 04:00:48;;;;;;;211.90;102.90;;;;;;;-4.44;72.28;99312.39;435304;1251;108156;-41
2023/03/02 04:10:55;;;;;;;297.10;123.50;;;;;;;-4.42;72.22;99312.71;435251;1253;97471;-40
2023/03/02 04:21:02;;;;;;;423.70;148.60;;;;;;;-4.63;72.48;99307.50;435364;1255;110424;-40
2023/03/02 04:31:10;;;;;;;346.50;143.20;;;;;;;-4.76;72.71;99312.57;435376;1251;107393;-39
2023/03/02 04:41:18;;;;;;;336.60;135.00;;;;;;;-4.84;73.05;99314.96;435459;1253;97458;-39
2023/03/02 04:51:28;;;;;;;322.80;131.20;;;;;;;-4.99;72.77;99316.19;435366;1251;109443;-40
2023/03/02 05:01:36;;;;;;;294.50;143.10;;;;;;;-5.09;73.07;99311.45;435302;1255;108323;-39
2023/03/02 05:11:43;;;;;;;289.50;144.90;;;;;;;-5.02;73.09;99318.11;435355;1251;97884;-40
2023/03/02 05:21:50;;;;;;;272.80;129.30;;;;;;;-4.88;73.11;99326.45;435335;1255;108530;-40
2023/03/02 05:31:57;;;;;;;268.70;127.80;;;;;;;-4.75;73.31;99330.54;436640;1254;96566;-40
2023/03/02 05:52:11;;;;;;;367.10;176.60;;;;;;;-4.36;73.21;99327.54;435218;1251;107766;-41
2023/03/02 06:02:19;;;;;;;417.50;191.30;;;;;;;-4.15;73.44;99330.23;435302;1255;97457;-40
2023/03/02 06:12:27;;;;;;;466.50;220.80;;;;;;;-3.88;73.66;99332.65;436001;1255;107628;-40
2023/03/02 06:22:34;;;;;;;484.80;212.20;;;;;;;-3.58;73.76;99336.39;436031;1255;97841;-38
2023/03/02 06:32:42;;;;;;;443.10;207.70;;;;;;;-2.96;74.43;99334.48;436664;1255;98483;-39
2023/03/02 06:42:49;;;;;;;383.40;177.90;;;;;;;-1.62;74.31;99345.39;435292;1255;109294;-41
2023/03/02 06:52:56;;;;;;;354.20;171.10;;;;;;;-0.36;73.63;99342.15;436932;1256;110034;-40
2023/03/02 07:03:03;;;;;;;322.30;151.70;;;;;;;0.56;73.11;99346.01;435291;1256;97469;-40
2023/03/02 07:13:11;;;;;;;360.10;175.80;;;;;;;1.30;72.74;99340.15;438373;1263;97762;-40
2023/03/02 07:23:23;;;;;;;408.10;181.90;;;;;;;1.92;72.29;99328.42;438271;1256;110022;-38
2023/03/02 07:33:30;;;;;;;298.30;137.60;;;;;;;2.54;71.99;99324.90;435274;1256;108906;-40
2023/03/02 07:43:38;;;;;;;247.90;116.90;;;;;;;3.36;71.85;99327.14;437984;1255;97471;-40
2023/03/02 08:03:52;;;;;;;137.30;68.50;;;;;;;5.16;71.78;99320.57;436505;1255;109909;-40
2023/03/02 08:14:01;;;;;;;117.90;58.90;;;;;;;6.13;71.25;99325.19;437346;1264;109374;-41
2023/03/02 08:24:06;;;;;;;126.20;62.40;;;;;;;5.88;69.85;99322.30;435292;1251;108318;-40
2023/03/02 08:34:13;;;;;;;119.00;59.10;;;;;;;5.68;69.47;99320.78;436910;1256;97900;-39
2023/03/02 08:44:21;;;;;;;99.60;52.90;;;;;;;5.97;69.39;99320.48;435853;1252;110198;-40
2023/03/02 08:54:28;;;;;;;64.30;32.10;;;;;;;6.14;69.27;99307.05;437479;1258;107639;-39
2023/03/02 09:04:35;;;;;;;48.50;26.20;;;;;;;6.23;68.48;99302.34;436533;1255;109533;-39
2023/03/02 09:14:42;;;;;;;46.00;25.80;;;;;;;6.24;68.34;99295.90;436895;1255;96632;-41
2023/03/02 09:24:49;;;;;;;61.10;32.20;;;;;;;6.45;67.79;99287.02;435158;1251;110013;-40
2023/03/02 09:34:56;;;;;;;44.30;25.40;;;;;;;6.29;67.31;99283.34;435388;1251;108245;-40
2023/03/02 09:55:19;;;;;;;46.70;26.30;;;;;;;6.53;66.63;99277.29;435326;1255;97903;-41
2023/03/02 10:05:24;;;;;;;59.20;29.30;;;;;;;6.83;66.91;99263.79;435340;1255;109575;-40
2023/03/02 10:15:30;;;;;;;46.50;25.60;;;;;;;6.88;66.01;99260.60;436355;1251;97886;-41
2023/03/02 10:25:40;;;;;;;61.20;31.70;;;;;;;6.84;65.92;99254.66;435378;1251;97212;-41
2023/03/02 10:35:47;;;;;;;66.10;37.40;;;;;;;6.93;65.52;99249.33;435316;1264;97880;-41
2023/03/02 10:46:00;;;;;;;72.30;38.40;;;;;;;6.77;65.11;99236.78;435967;1256;110197;-41
2023/03/02 10:56:05;;;;;;;64.90;34.90;;;;;;;6.77;65.34;99230.23;435327;1251;107645;-40
2023/03/02 11:06:11;;;;;;;56.10;32.20;;;;;;;6.86;65.16;99229.09;435229;1258;97897;-40
2023/03/02 11:16:23;;;;;;;60.30;31.50;;;;;;;6.92;64.95;99218.01;435391;1251;97873;-41
2023/03/02 11:26:34;;;;;;;57.90;31.30;;;;;;;6.93;65.08;99209.48;435433;1255;109851;-41
2023/03/02 11:36:44;;;;;;;61.20;34.10;;;;;;;6.98;64.74;99202.16;435468;1251;108927;-40
2023/03/02 11:46:52;;;;;;;62.00;34.00;;;;;;;7.03;63.98;99189.77;435242;1257;97460;-40
2023/03/02 12:07:17;;;;;;;54.80;31.40;;;;;;;6.93;64.48;99168.59;435266;1257;109609;-41
2023/03/02 12:17:23;;;;;;;57.00;30.90;;;;;;;6.85;64.02;99155.95;438815;1257;107878;-39
2023/03/02 12:27:34;;;;;;;58.50;31.30;;;;;;;6.75;64.27;99143.52;435873;1251;107664;-41
2023/03/02 12:37:41;;;;;;;57.50;29.50;;;;;;;6.81;64.31;99134.73;435357;1256;97480;-40
2023/03/02 12:47:56;;;;;;;55.70;31.20;;;;;;;6.80;64.39;99126.77;436321;1254;108738;-40
2023/03/02 12:58:04;;;;;;;51.70;29.00;;;;;;;6.64;64.14;99115.28;435297;1257;107641;-40
2023/03/02 13:08:16;;;;;;;52.30;29.10;;;;;;;6.62;64.37;99103.81;435287;1256;97899;-39
2023/03/02 13:18:23;;;;;;;48.70;27.10;;;;;;;6.64;64.19;99092.33;435755;1257;97711;-39
2023/03/02 13:28:33;;;;;;;43.90;25.00;;;;;;;6.67;64.38;99085.02;437870;1255;109493;-40
2023/03/02 13:38:48;;;;;;;45.60;26.90;;;;;;;6.73;64.29;99072.02;437513;1255;108029;-40
2023/03/02 13:48:54;;;;;;;48.20;26.30;;;;;;;6.67;64.16;99069.38;436580;1251;108066;-41
2023/03/02 13:59:18;;;;;;;41.30;24.90;;;;;;;6.60;64.07;99055.04;438417;1255;97430;-39
2023/03/02 14:09:25;;;;;;;43.50;25.10;;;;;;;6.55;64.08;99044.66;435382;1252;109876;-41
2023/03/02 14:19:33;;;;;;;51.80;26.80;;;;;;;6.47;64.27;99027.98;435298;1258;107497;-40
2023/03/02 14:29:40;;;;;;;47.30;27.10;;;;;;;6.38;64.58;99015.40;435393;1256;98386;-40
2023/03/02 14:39:49;;;;;;;38.90;24.70;;;;;;;6.19;64.28;99007.28;435304;1251;97887;-40
2023/03/02 14:49:59;;;;;;;42.00;23.70;;;;;;;6.11;64.41;99000.98;435441;1256;111460;-40
2023/03/02 15:00:14;;;;;;;41.40;23.90;;;;;;;6.07;64.40;98999.23;435428;1256;107004;-40
2023/03/02 15:10:23;;;;;;;39.50;21.30;;;;;;;5.91;64.73;98999.96;435329;1256;97461;-41
2023/03/02 15:30:37;;;;;;;33.20;20.90;;;;;;;5.61;64.85;98995.65;435379;1251;109828;-40
2023/03/02 15:40:45;;;;;;;45.90;24.10;;;;;;;5.46;65.50;98999.07;435113;1251;326161;-41
2023/03/02 15:50:56;;;;;;;49.20;26.20;;;;;;;5.19;65.56;98994.08;435294;1252;97476;-40
2023/03/02 16:01:06;;;;;;;54.50;24.90;;;;;;;4.85;65.81;98995.58;435333;1255;110264;-40
2023/03/02 16:11:15;;;;;;;47.10;25.00;;;;;;;4.49;66.17;98998.86;435324;1255;107587;-40
2023/03/02 16:21:24;;;;;;;34.50;18.50;;;;;;;4.18;66.36;99000.29;435349;1255;97871;-40
2023/03/02 16:31:36;;;;;;;41.50;23.20;;;;;;;3.91;66.85;99003.83;435431;1257;109823;-40
2023/03/02 16:41:45;;;;;;;60.50;29.20;;;;;;;3.61;67.54;99006.06;435307;1253;107533;-40
2023/03/02 16:51:56;;;;;;;59.30;30.40;;;;;;;3.26;67.69;99006.36;435364;1255;97778;-40
2023/03/02 17:02:04;;;;;;;67.90;32.30;;;;;;;2.91;67.99;99011.95;435416;1255;109227;-41
2023/03/02 17:12:11;;;;;;;48.10;26.10;;;;;;;2.64;68.26;99017.08;435254;1255;108749;-40
2023/03/02 17:22:17;;;;;;;52.40;28.80;;;;;;;2.42;68.57;99027.59;435299;1251;97871;-41
2023/03/02 17:32:25;;;;;;;75.60;39.70;;;;;;;2.24;68.90;99033.56;435336;1255;110743;-41
2023/03/02 17:42:31;;;;;;;98.80;50.20;;;;;;;1.92;69.10;99037.98;435340;1256;108643;-40
2023/03/02 17:52:39;;;;;;;117.10;58.70;;;;;;;1.53;69.44;99041.63;435391;1255;97944;-40
2023/03/02 18:02:46;;;;;;;149.80;68.10;;;;;;;1.13;69.91;99035.21;435330;1251;97750;-40
2023/03/02 18:22:59;;;;;;;140.60;68.60;;;;;;;0.47;70.46;99033.70;435377;1256;107322;-41
2023/03/02 18:33:07;;;;;;;135.20;66.60;;;;;;;0.35;70.78;99031.98;435216;1251;96692;-40
2023/03/02 18:43:15;;;;;;;166.80;70.20;;;;;;;0.43;71.09;99030.98;435284;1255;110745;-42
2023/03/02 18:53:21;;;;;;;181.30;74.00;;;;;;;0.29;71.30;99032.67;435223;1251;108454;-40
2023/03/02 19:03:29;;;;;;;191.20;77.30;;;;;;;-0.03;71.09;99032.27;435346;1251;97468;-41
2023/03/02 19:13:37;;;;;;;192.80;80.60;;;;;;;-0.42;71.45;99040.98;436198;1255;110078;-40
2023/03/02 19:23:44;;;;;;;194.90;83.20;;;;;;;-0.68;72.02;99041.67;435482;1255;108213;-41
2023/03/02 19:34:17;;;;;;;209.90;85.50;;;;;;;-0.89;72.22;99041.63;435681;1251;96625;-40
2023/03/02 19:54:31;;;;;;;188.60;81.10;;;;;;;-1.19;72.37;99045.32;435381;1251;107775;-40
2023/03/02 20:04:39;;;;;;;230.00;103.40;;;;;;;-1.14;72.56;99043.28;435384;1251;97476;-39
2023/03/02 20:24:53;;;;;;;334.70;127.30;;;;;;;-1.31;73.15;99032.27;435413;1255;108016;-40
2023/03/02 20:35:01;;;;;;;282.40;109.80;;;;;;;-1.54;73.06;99030.11;435329;1251;108276;-39
2023/03/02 20:45:11;;;;;;;207.30;83.80;;;;;;;-1.74;73.39;99027.52;435433;1255;97871;-39
2023/03/02 20:55:19;;;;;;;164.00;80.90;;;;;;;-1.78;73.69;99019.91;438334;1251;110116;-40
2023/03/02 21:05:28;;;;;;;144.40;72.00;;;;;;;-1.76;73.76;99018.00;437501;1251;106656;-40
2023/03/02 21:15:36;;;;;;;196.50;80.70;;;;;;;-1.67;74.03;99014.33;437755;1255;97868;-40
2023/03/02 21:35:50;;;;;;;376.00;146.00;;;;;;;-1.93;74.12;99003.10;438253;1255;109418;-40
2023/03/02 21:56:03;;;;;;;315.90;124.10;;;;;;;-2.42;74.29;98974.98;439432;1255;97360;-39
2023/03/02 22:06:12;;;;;;;329.00;126.20;;;;;;;-2.51;74.70;98963.37;438789;1255;97042;-40
2023/03/02 22:16:20;;;;;;;246.90;115.40;;;;;;;-2.48;74.87;98957.41;438771;1255;110968;-40
2023/03/02 22:26:28;;;;;;;260.30;120.70;;;;;;;-2.40;74.99;98951.99;439043;1253;108713;-39
2023/03/02 22:36:36;;;;;;;229.30;101.80;;;;;;;-2.34;75.01;98954.40;438961;1253;97872;-40
2023/03/02 22:46:43;;;;;;;320.70;131.90;;;;;;;-2.41;75.07;98956.06;438892;1252;108497;-40
2023/03/02 22:56:50;;;;;;;359.10;141.10;;;;;;;-2.62;75.02;98957.98;438535;1256;108898;-39
2023/03/02 23:06:59;;;;;;;300.50;127.40;;;;;;;-2.80;75.34;98956.63;435234;1253;97889;-39
2023/03/02 23:17:07;;;;;;;322.40;127.80;;;;;;;-3.06;75.12;98946.70;435277;1254;97235;-40
2023/03/02 23:27:14;;;;;;;327.00;132.30;;;;;;;-3.25;75.58;98938.56;435339;1252;109642;-40
2023/03/02 23:37:22;;;;;;;283.60;134.00;;;;;;;-3.30;75.48;98928.55;436013;1253;109430;-39
2023/03/02 23:47:29;;;;;;;267.50;132.60;;;;;;;-3.23;75.50;98925.95;436184;1253;97903;-40
2023/03/02 23:57:36;;;;;;;243.70;113.70;;;;;;;-2.99;75.87;98932.52;435332;1253;110875;-39
